Date,TemperatureHighF,TemperatureAvgF,TemperatureLowF,DewpointHighF,DewpointAvgF,DewpointLowF,HumidityHigh,HumidityAvg,HumidityLow,PressureMaxIn,PressureMinIn,WindSpeedMaxMPH,WindSpeedAvgMPH,GustSpeedMaxMPH,PrecipitationSumIn
2013-1-1,55.9,43.6,34.4,42.9,37.8,32.8,96,81,52,30.33,30.19,6,2,13,0.01
2013-1-2,56.4,42.8,35.4,40.8,35.4,31.1,88,76,53,30.21,30.07,4,2,10,0.00
2013-1-3,54.3,44.3,35.0,47.8,39.7,31.4,97,84,70,30.27,30.03,11,3,22,0.15
2013-1-4,54.1,47.1,41.9,48.7,45.3,40.8,98,94,79,30.29,30.12,3,1,7,0.03
2013-1-5,48.9,44.9,41.3,46.3,43.6,40.5,98,95,79,30.18,30.09,7,1,18,0.08
2013-1-6,51.2,45.7,41.8,46.8,43.6,41.2,98,93,78,30.22,30.13,8,2,18,0.08
2013-1-7,50.2,47.7,45.1,49.1,46.8,44.0,97,96,95,30.23,30.12,10,5,22,0.12
2013-1-8,54.2,51.1,47.9,51.2,48.7,46.1,96,92,88,30.22,29.97,14,5,27,0.00
2013-1-9,51.0,44.4,36.2,48.2,41.4,35.1,96,89,74,30.02,29.83,12,5,27,0.67
2013-1-10,44.7,39.0,35.4,40.5,36.5,34.6,97,91,71,30.19,30.02,15,4,30,0.84
2013-1-11,47.4,39.0,33.0,41.1,35.9,31.9,97,89,67,30.29,30.15,5,1,10,0.08
2013-1-12,42.7,35.5,30.7,35.2,32.2,28.5,97,88,66,30.37,30.26,5,1,10,0.00
2013-1-13,41.8,33.7,29.3,31.6,28.7,26.6,90,82,63,30.43,30.36,6,2,13,0.00
2013-1-14,48.3,36.6,29.1,36.4,30.6,26.3,91,80,53,30.52,30.43,5,1,10,0.00
2013-1-15,49.9,40.1,33.3,37.3,33.7,30.3,90,79,59,30.56,30.50,5,1,13,0.00
2013-1-16,61.4,45.5,35.2,40.7,33.6,29.5,90,66,33,30.51,30.33,3,1,8,0.00
2013-1-17,66.9,48.5,39.4,43.1,35.5,31.0,92,63,34,30.33,30.16,9,2,17,0.00
2013-1-18,50.6,41.1,34.0,43.8,37.6,31.3,97,88,74,30.24,30.16,5,1,9,0.00
2013-1-19,50.0,38.0,28.6,42.4,36.2,27.8,98,93,72,30.28,30.18,4,1,8,0.01
2013-1-20,56.7,40.0,29.0,43.5,36.4,28.5,98,88,58,30.26,30.15,4,1,9,0.01
2013-1-21,62.1,44.0,31.7,41.8,35.8,29.3,97,76,37,30.18,30.06,7,2,10,0.01
2013-1-22,62.5,47.2,37.5,43.1,38.3,32.6,89,73,40,30.06,29.88,6,2,9,0.00
2013-1-23,46.7,44.6,41.5,45.7,42.9,40.7,98,94,86,30.16,29.84,9,1,20,0.68
2013-1-24,57.2,46.0,36.3,51.5,43.8,35.5,98,92,79,30.16,30.08,7,2,15,0.07
2013-1-25,52.2,47.8,41.9,50.4,46.6,40.9,98,96,93,30.14,30.00,9,3,20,0.21
2013-1-26,49.2,43.7,40.7,45.0,41.6,39.8,98,92,74,30.14,29.99,7,2,13,0.30
2013-1-27,45.7,41.6,38.3,43.6,40.6,37.6,98,96,89,30.22,30.12,6,2,13,0.83
2013-1-28,47.6,45.1,42.7,44.7,43.1,41.1,96,93,86,30.35,30.16,8,4,18,0.21
2013-1-29,49.2,45.2,42.9,46.4,43.8,42.3,98,95,88,30.53,30.35,8,3,15,0.29
2013-1-30,50.7,43.7,38.6,48.7,42.8,37.8,98,97,89,30.55,30.45,4,1,8,0.03
2013-1-31,56.0,43.6,36.1,48.2,41.0,35.6,99,91,69,30.45,30.31,5,1,12,0.01
2013-2-1,62.2,48.9,39.3,47.1,43.0,37.9,97,81,55,30.32,30.14,5,1,13,0.00
2013-2-2,56.9,47.2,40.9,47.8,43.4,38.7,94,87,66,30.33,30.19,6,2,11,0.00
2013-2-3,52.8,47.9,43.3,45.3,44.0,41.8,95,87,70,30.32,30.21,5,1,9,0.00
2013-2-4,53.1,44.5,37.3,45.6,41.8,36.5,98,90,75,30.22,30.00,8,2,20,0.00
2013-2-5,53.3,47.9,43.7,48.3,44.7,41.7,97,89,76,30.11,29.95,12,5,25,0.37
2013-2-6,51.2,46.1,38.7,46.3,43.1,37.2,97,89,72,30.13,29.89,13,4,29,0.82
2013-2-7,41.7,38.9,35.9,39.6,37.6,35.1,97,95,90,30.11,29.98,8,2,16,0.48
2013-2-8,48.6,40.3,31.4,41.9,36.8,30.6,98,88,72,30.27,30.10,10,2,20,0.01
2013-2-9,52.4,41.8,33.9,42.3,38.4,32.9,97,88,63,30.30,30.25,7,1,13,0.00
2013-2-10,48.9,45.2,40.7,43.2,40.6,38.1,97,85,72,30.31,30.27,6,2,15,0.00
2013-2-11,52.8,46.1,43.4,44.8,40.7,36.8,97,82,62,30.42,30.29,7,3,13,0.02
2013-2-12,54.1,47.6,44.9,50.7,46.3,44.1,98,95,85,30.51,30.42,6,2,13,0.09
2013-2-13,54.7,48.2,44.2,49.1,46.1,43.6,98,93,79,30.50,30.44,8,1,13,0.00
2013-2-14,56.8,48.8,41.6,48.3,45.1,40.8,98,87,67,30.51,30.37,10,3,20,0.00
2013-2-15,68.3,53.0,44.9,50.7,45.1,39.9,97,77,41,30.37,30.18,6,2,12,0.00
2013-2-16,52.9,46.8,44.1,45.9,43.9,41.6,98,90,72,30.32,30.25,9,2,17,0.03
2013-2-17,52.2,43.8,36.0,41.6,38.6,33.9,97,83,60,30.30,30.07,10,2,22,0.01
2013-2-18,48.4,40.3,33.8,41.9,37.2,32.8,97,89,70,30.07,29.72,11,3,24,0.05
2013-2-19,48.3,40.2,35.7,40.7,37.4,34.3,96,90,72,29.82,29.63,9,3,16,0.41
2013-2-20,48.4,43.8,37.9,42.8,41.0,37.1,97,90,76,30.16,30.06,8,2,16,0.20
2013-2-21,47.4,42.4,37.4,43.6,40.2,36.8,98,92,79,30.29,30.16,7,2,12,0.05
2013-2-22,48.7,45.3,41.5,45.6,42.9,38.4,96,91,79,30.25,30.02,14,6,30,0.47
2013-2-23,48.2,42.5,37.4,41.6,38.1,35.6,96,85,65,30.45,30.19,12,3,23,0.16
2013-2-24,46.7,36.7,32.4,40.1,35.3,31.4,97,95,78,30.45,30.37,3,1,6,0.01
2013-2-27,57.1,52.0,47.2,50.5,47.4,39.4,97,85,63,30.28,30.22,7,2,14,0.29
2013-2-28,54.3,52.1,50.5,52.5,51.0,49.7,97,96,93,30.48,30.22,9,5,19,0.29
2013-3-1,58.3,51.7,46.8,52.5,49.7,46.0,98,93,81,30.48,30.32,6,2,13,0.00
2013-3-2,54.0,49.3,45.1,49.9,47.4,42.9,98,93,79,30.32,30.21,8,2,17,0.01
2013-3-3,52.2,45.0,38.0,42.9,38.6,33.9,92,79,54,30.28,30.15,13,4,25,0.00
2013-3-4,57.2,44.3,35.9,46.5,38.3,32.6,94,80,64,30.15,29.87,8,2,20,0.00
2013-3-5,44.8,43.1,40.8,43.1,41.5,38.1,97,94,88,29.87,29.59,9,2,18,1.10
2013-3-6,48.2,43.5,41.2,45.2,41.8,39.1,97,94,85,29.96,29.54,11,3,25,0.57
2013-3-7,57.3,43.7,35.3,42.7,38.6,34.5,97,84,49,30.00,29.96,10,2,17,0.01
2013-3-8,52.3,42.1,31.2,43.7,38.6,30.4,98,88,70,30.21,29.99,11,3,22,0.01
2013-3-9,58.2,46.3,37.5,46.3,41.7,35.9,96,85,62,30.49,30.21,10,3,19,0.00
2013-3-10,61.1,46.2,34.6,49.2,40.5,33.6,97,83,47,30.48,30.40,8,2,17,0.00
2013-3-11,60.4,50.1,46.0,52.0,47.6,45.2,98,91,73,30.42,30.24,10,3,18,0.01
2013-3-12,59.4,48.9,45.1,50.7,46.9,44.6,98,93,72,30.24,30.19,8,1,14,0.00
2013-3-13,59.9,49.3,45.8,51.4,46.9,44.9,97,92,73,30.23,30.12,9,2,15,0.00
2013-3-14,60.6,50.2,44.5,49.2,46.3,43.6,98,87,65,30.23,30.08,11,3,21,0.00
2013-3-15,59.4,51.7,47.0,52.2,48.9,45.9,97,90,77,30.23,30.20,8,2,12,0.00
2013-3-16,49.9,47.5,43.7,47.7,46.1,40.6,97,95,88,30.24,30.13,8,3,20,0.43
2013-3-17,51.2,44.1,38.4,42.1,38.0,34.3,97,80,59,30.34,30.24,9,2,18,0.01
2013-3-18,57.7,45.2,33.1,44.6,38.7,31.8,97,79,48,30.28,30.05,10,2,22,0.01
2013-3-19,59.7,50.1,44.4,50.2,44.4,39.3,95,82,56,30.05,29.69,11,3,25,0.71
2013-3-20,55.1,48.9,40.3,50.7,44.4,35.3,95,85,71,30.25,29.66,17,7,39,0.40
2013-3-21,49.0,42.0,37.6,42.9,38.1,34.6,96,86,64,30.37,30.25,9,3,18,0.09
2013-3-22,48.3,41.7,35.6,40.5,36.3,32.1,96,82,56,30.38,30.34,9,2,21,0.05
2013-3-23,52.4,41.3,30.7,38.3,34.8,29.4,96,79,54,30.37,30.21,10,2,19,0.00
2013-3-24,52.6,44.2,35.7,40.5,37.5,33.1,94,78,52,30.23,30.06,8,2,17,0.00
2013-3-25,54.2,44.5,37.8,45.2,41.1,36.5,96,88,70,30.06,29.96,6,1,11,0.00
2013-3-26,58.9,49.4,44.6,47.1,44.7,43.0,95,85,58,30.00,29.92,7,2,12,0.00
2013-3-27,59.4,50.9,46.5,52.0,47.8,44.6,95,89,69,29.98,29.89,9,1,22,0.06
2013-3-28,59.8,51.6,47.4,52.0,48.6,46.3,97,90,71,30.12,29.97,7,1,12,0.00
2013-3-29,69.7,55.4,48.3,55.8,50.6,46.6,97,85,57,30.15,30.08,9,2,17,0.02
2013-3-30,77.0,56.8,45.0,56.3,49.8,44.1,98,80,47,30.10,29.94,10,2,15,0.00
2013-3-31,61.1,54.3,50.8,54.3,51.0,48.9,95,89,76,30.04,29.96,6,1,11,0.00
2013-4-1,56.6,52.1,49.2,52.1,49.9,47.4,97,92,84,30.19,30.03,4,2,9,0.01
2013-4-2,60.2,50.2,47.8,52.0,48.1,46.7,97,92,74,30.22,30.15,9,2,16,0.01
2013-4-3,61.1,51.3,46.1,53.1,48.7,45.6,98,91,75,30.16,29.89,8,1,14,0.02
2013-4-4,55.8,52.6,50.3,54.4,51.4,49.2,98,96,93,29.93,29.70,13,4,27,1.01
2013-4-5,55.2,52.5,51.1,51.8,50.5,49.4,96,93,84,30.01,29.87,13,7,28,0.47
2013-4-6,57.1,52.3,49.6,51.2,49.6,47.4,95,91,77,30.05,29.76,15,7,37,0.32
2013-4-7,53.7,47.3,41.6,51.1,44.5,40.5,97,90,69,30.03,29.77,18,6,41,0.72
2013-4-8,53.7,45.6,40.4,46.7,41.7,39.1,98,87,64,30.30,30.03,10,2,22,0.09
2013-4-9,62.6,49.5,40.5,48.5,43.2,39.2,97,81,55,30.32,30.26,8,2,14,0.00
2013-4-10,54.4,48.4,42.0,51.6,46.5,40.6,97,93,84,30.35,30.26,7,3,16,0.08
2013-4-11,54.1,47.0,39.1,44.9,42.4,38.3,97,85,66,30.36,30.15,12,4,28,0.00
2013-4-12,56.2,45.7,37.7,46.4,42.5,36.9,98,89,67,30.15,29.97,11,3,22,0.11
2013-4-13,49.9,45.9,39.8,43.2,38.9,35.4,92,77,61,30.15,30.04,10,4,18,0.05
2013-4-14,49.1,43.0,38.4,43.0,39.6,36.5,96,88,74,30.15,29.96,9,2,15,0.10
2013-4-15,49.7,44.1,39.6,41.2,39.4,37.3,96,84,67,30.20,29.98,13,3,25,0.29
2013-4-16,53.4,46.0,37.9,46.4,40.8,36.6,97,83,63,30.41,30.20,12,3,24,0.06
2013-4-17,56.2,49.2,44.6,45.8,43.5,41.7,93,81,64,30.49,30.41,11,3,23,0.00
2013-4-18,57.1,51.0,47.0,48.1,45.1,41.3,94,81,60,30.47,30.37,11,3,20,0.00
2013-4-19,53.6,50.0,48.1,52.2,48.8,46.7,97,96,93,30.38,30.29,8,3,16,0.24
2013-4-20,56.1,50.5,47.9,50.0,46.6,43.9,98,87,71,30.36,30.28,11,4,21,0.02
2013-4-21,63.7,51.2,46.2,48.6,45.0,41.6,91,80,54,30.31,30.23,8,3,15,0.00
2013-4-22,67.0,55.2,46.4,46.8,44.6,36.4,94,70,33,30.29,30.19,13,5,26,0.00
2013-4-23,63.7,54.9,47.7,45.5,38.0,30.0,89,55,32,30.23,30.11,14,6,34,0.00
2013-4-24,78.9,57.5,39.8,44.6,39.2,28.5,96,58,17,30.15,29.91,13,4,28,0.00
2013-4-25,65.5,52.2,41.3,49.9,45.5,39.7,96,79,51,30.15,29.96,10,4,21,0.00
2013-4-26,63.2,50.4,46.2,52.3,47.2,44.8,98,89,67,30.29,30.15,11,2,21,0.00
2013-4-27,56.9,49.2,44.8,48.3,45.6,43.5,97,88,64,30.32,30.25,11,3,19,0.00
2013-4-28,59.9,52.7,48.5,51.8,48.4,45.3,94,85,73,30.30,30.19,11,3,20,0.00
2013-4-29,56.2,51.1,45.5,50.0,45.2,35.1,98,81,47,30.22,30.16,12,4,26,0.08
2013-4-30,54.9,47.5,37.4,41.7,37.7,33.8,92,70,46,30.38,30.22,13,5,30,0.00
2013-5-1,63.2,51.4,37.7,44.8,40.2,34.3,93,67,35,30.40,30.31,13,4,26,0.00
2013-5-2,72.8,56.1,43.5,46.1,43.3,38.6,92,66,30,30.33,30.21,14,5,29,0.00
2013-5-3,64.8,53.1,41.5,50.2,46.1,39.9,96,78,53,30.26,30.06,14,4,28,0.00
2013-5-4,84.2,67.0,42.4,49.4,40.6,32.7,96,49,16,30.06,29.70,10,3,26,0.00
2013-5-5,85.0,67.0,54.9,50.6,42.7,34.2,81,45,21,29.83,29.61,12,5,25,0.00
2013-5-6,70.3,57.1,50.5,52.7,49.9,46.1,94,79,44,29.97,29.83,9,3,15,0.00
2013-5-7,58.5,53.1,50.6,52.0,49.6,48.6,95,88,78,30.07,29.94,8,3,15,0.00
2013-5-8,60.4,53.7,50.2,50.7,48.9,47.3,93,84,69,30.17,30.06,8,3,14,0.00
2013-5-9,63.2,53.0,50.1,53.3,49.3,47.6,94,88,69,30.20,30.11,10,3,19,0.00
2013-5-10,60.2,51.9,48.9,52.4,48.8,47.5,96,89,76,30.25,30.19,9,2,16,0.00
2013-5-11,74.8,59.1,47.4,55.1,49.8,42.8,96,74,35,30.24,30.06,8,2,14,0.00
2013-5-12,67.0,59.3,55.7,57.2,54.5,52.9,94,85,70,30.15,30.08,10,3,20,0.00
2013-5-13,62.6,56.2,50.7,54.7,52.9,48.6,96,89,68,30.22,30.07,10,3,20,0.00
2013-5-14,61.9,53.9,47.0,50.0,47.6,44.1,97,80,58,30.21,30.13,11,3,24,0.00
2013-5-15,63.4,53.9,46.5,51.7,47.9,44.8,95,81,58,30.13,30.00,7,2,15,0.06
2013-5-16,60.9,54.8,51.7,52.9,50.7,48.3,96,86,68,30.01,29.96,7,3,14,0.07
2013-5-17,59.3,53.9,48.8,52.1,49.1,46.6,97,85,67,30.12,30.00,9,3,18,0.07
2013-5-18,60.2,52.6,47.3,52.3,49.7,45.4,96,90,74,30.32,30.10,11,3,27,0.08
2013-5-19,60.7,54.3,50.1,51.6,49.2,46.4,97,84,66,30.41,30.30,13,5,27,0.08
2013-5-20,62.0,52.5,44.6,51.7,47.8,43.3,97,85,68,30.32,29.99,13,4,26,0.00
2013-5-21,52.4,48.8,42.4,49.9,44.8,38.3,96,87,66,30.09,29.86,18,5,33,0.64
2013-5-22,49.4,45.4,42.3,47.6,43.9,40.1,97,94,89,30.08,30.04,8,4,20,1.93
2013-5-23,57.7,49.7,43.6,49.2,46.4,42.8,97,89,64,30.07,30.01,10,4,18,0.39
2013-5-24,56.2,50.5,46.4,49.0,46.9,44.8,96,88,68,30.12,30.06,7,3,12,0.05
2013-5-25,63.9,52.5,43.8,52.3,47.8,43.0,98,86,49,30.09,29.96,7,2,14,0.26
2013-5-26,59.4,54.1,50.8,51.8,50.6,49.6,97,88,73,30.08,29.97,8,4,21,0.05
2013-5-27,60.6,54.3,51.5,56.4,52.6,50.0,96,94,84,29.99,29.79,15,5,28,0.62
2013-5-28,61.9,55.0,50.9,53.6,51.2,48.6,97,88,64,29.98,29.74,12,4,24,0.15
2013-5-29,58.0,54.5,50.3,53.6,51.2,48.9,96,89,78,30.10,29.73,11,5,27,0.22
2013-5-30,63.4,53.5,47.7,50.9,48.4,44.3,97,84,53,30.25,30.09,8,2,15,0.03
2013-5-31,62.4,53.7,43.2,51.2,47.7,42.1,98,82,63,30.30,30.22,13,4,32,0.00
2013-6-1,65.9,55.7,46.9,55.0,50.5,45.5,97,83,62,30.24,30.07,11,3,19,0.00
2013-6-2,61.4,55.9,52.2,55.4,52.5,49.3,97,89,77,30.07,30.03,16,6,37,0.08
2013-6-3,61.7,55.2,48.2,53.3,50.4,46.8,96,84,71,30.06,30.00,17,6,33,0.00
2013-6-4,64.1,55.9,46.5,54.8,51.2,45.1,97,85,63,30.02,29.97,15,6,28,0.00
2013-6-5,62.4,55.5,51.7,56.3,53.0,51.0,98,92,78,30.08,30.01,17,6,33,0.00
2013-6-6,62.1,54.7,51.4,54.0,51.5,50.1,98,89,74,30.08,30.03,14,6,32,0.00
2013-6-7,68.5,57.8,50.2,54.9,51.2,42.8,96,81,46,30.12,30.08,14,5,26,0.00
2013-6-8,66.2,57.5,52.9,55.5,51.8,48.8,97,82,65,30.12,30.03,14,7,32,0.00
2013-6-9,61.2,55.5,50.7,51.9,49.1,46.8,91,79,63,30.05,29.98,20,9,39,0.00
2013-6-10,59.9,54.3,47.5,50.3,47.3,44.0,90,78,59,30.03,29.95,13,6,33,0.00
2013-6-11,61.9,55.0,48.7,51.6,48.9,46.3,94,81,63,30.17,30.03,12,4,20,0.00
2013-6-12,59.9,52.5,45.7,51.2,48.2,44.9,97,86,66,30.23,30.15,10,3,20,0.00
2013-6-13,60.1,53.7,48.2,53.0,50.1,46.3,97,88,73,30.31,30.22,8,3,14,0.07
2013-6-14,64.3,55.5,45.2,53.0,49.9,44.0,97,83,66,30.29,29.97,15,4,27,0.00
2013-6-15,61.7,54.9,49.3,55.2,51.7,48.5,98,89,78,30.06,29.93,7,2,13,0.00
2013-6-16,64.3,55.3,47.1,54.6,50.9,45.7,96,86,69,30.14,30.05,9,2,16,0.00
2013-6-17,67.2,56.6,47.8,56.5,52.2,46.7,97,86,57,30.12,30.02,11,4,27,0.00
2013-6-18,63.9,56.0,49.2,54.0,51.4,47.8,96,85,66,30.03,29.98,11,4,22,0.17
2013-6-19,62.6,56.0,51.4,54.7,51.9,49.9,97,87,68,30.13,29.98,8,3,15,0.07
2013-6-20,63.2,57.3,52.9,54.2,52.4,50.3,96,84,67,30.14,30.07,10,3,17,0.08
2013-6-21,67.9,58.2,48.2,54.9,51.8,47.1,97,81,61,30.15,30.10,12,4,23,0.00
2013-6-22,74.2,60.7,48.7,59.6,54.5,47.6,97,81,51,30.10,29.86,10,2,16,0.01
2013-6-23,67.5,60.9,54.9,62.9,58.8,53.5,97,93,80,29.86,29.65,9,3,20,0.14
2013-6-24,63.4,57.9,54.0,57.5,55.0,52.8,97,90,73,29.74,29.67,8,2,15,0.12
2013-6-25,67.6,60.6,56.2,59.1,56.7,55.1,97,88,68,29.85,29.68,11,5,29,0.43
2013-6-26,73.6,64.6,58.7,63.2,60.0,57.6,97,86,66,29.99,29.84,7,2,14,0.10
2013-6-27,73.0,64.2,57.2,63.2,60.0,55.8,97,87,71,30.15,29.98,8,2,17,0.00
2013-6-28,78.8,65.9,55.0,65.8,59.9,54.2,98,82,53,30.14,30.06,8,2,15,0.00
2013-6-29,83.2,67.1,56.7,65.7,59.8,55.6,97,79,54,30.10,29.96,13,3,25,0.00
2013-6-30,71.5,63.9,59.5,62.8,59.9,58.1,96,87,68,29.98,29.92,10,3,17,0.00
2013-7-1,69.6,62.8,58.4,62.1,59.5,57.0,97,89,77,30.05,29.94,12,5,22,0.00
2013-7-2,67.8,61.4,58.2,62.2,58.4,56.8,97,90,77,30.08,30.03,14,5,29,0.00
2013-7-3,68.0,61.5,56.7,58.7,56.2,53.8,95,83,67,30.11,30.05,16,7,32,0.00
2013-7-4,66.2,60.0,52.6,56.5,53.9,50.9,95,81,66,30.11,30.02,15,6,33,0.00
2013-7-5,66.2,60.2,54.5,56.5,53.2,50.9,89,78,64,30.05,29.93,16,7,37,0.00
2013-7-6,66.2,59.8,52.4,55.9,53.6,50.1,93,80,67,29.96,29.87,16,7,34,0.00
2013-7-7,66.1,60.1,56.9,57.6,54.8,53.2,89,83,72,29.99,29.91,14,6,31,0.00
2013-7-8,66.0,59.8,51.9,56.1,54.0,49.6,95,82,69,30.03,29.98,14,6,31,0.00
2013-7-9,64.3,56.8,52.7,58.1,54.3,51.9,98,92,78,30.08,30.02,14,5,30,0.00
2013-7-10,63.8,57.6,52.6,55.2,52.5,49.1,95,84,69,30.08,29.97,16,7,33,0.00
2013-7-11,65.2,57.2,48.0,52.3,49.9,46.4,95,78,58,30.04,29.97,16,6,33,0.00
2013-7-12,63.9,56.6,49.0,53.7,50.3,47.3,96,80,58,30.08,30.00,13,5,30,0.00
2013-7-13,66.8,57.1,47.2,54.5,50.7,45.8,96,80,58,30.08,30.00,14,6,34,0.00
2013-7-14,62.5,56.0,50.3,54.6,51.6,49.5,98,86,69,30.06,29.97,15,6,32,0.00
2013-7-15,62.2,56.0,49.6,54.8,51.9,48.5,97,86,74,30.00,29.80,16,6,33,0.00
2013-7-16,61.7,55.2,50.3,57.0,52.6,48.9,97,91,84,30.05,29.81,7,3,15,0.00
2013-7-17,65.3,58.4,54.9,55.3,53.0,50.3,92,83,70,30.17,30.05,11,4,21,0.00
2013-7-18,64.8,57.0,49.0,55.6,51.9,47.1,97,84,69,30.17,30.10,14,5,32,0.00
2013-7-19,63.2,57.4,53.3,54.9,52.9,51.0,92,85,73,30.13,30.05,16,7,33,0.00
2013-7-20,63.7,57.2,53.0,55.5,53.2,51.6,95,87,74,30.09,29.96,17,7,31,0.00
2013-7-21,64.8,57.3,51.9,56.8,53.7,51.1,97,88,74,29.97,29.88,15,7,32,0.00
2013-7-22,65.8,58.1,52.5,57.5,54.2,51.7,98,87,72,29.99,29.93,16,6,28,0.00
2013-7-25,57.2,54.4,52.3,51.4,50.8,50.0,92,88,81,30.04,30.00,12,6,23,0.00
2013-7-26,62.6,55.0,48.1,54.3,50.9,47.3,98,87,74,30.15,30.04,14,6,33,0.00
2013-7-27,64.3,57.3,49.2,54.8,52.4,48.1,97,84,71,30.16,30.03,16,6,38,0.00
2013-7-28,65.3,58.3,51.6,55.1,52.7,49.6,95,82,69,30.05,29.96,14,6,32,0.00
2013-7-29,65.2,57.6,50.1,55.5,52.8,49.3,98,85,67,30.08,29.96,12,4,25,0.00
2013-7-30,64.1,59.1,56.4,55.6,54.2,52.9,90,84,72,30.15,30.07,11,3,19,0.00
2013-7-31,59.8,57.9,56.7,56.9,55.6,54.4,95,92,86,30.14,30.08,5,2,11,0.00
2013-8-1,64.2,58.9,56.3,58.2,56.2,54.8,97,91,76,30.14,30.08,9,2,13,0.01
2013-8-2,67.7,60.6,55.5,57.4,55.6,54.1,96,84,68,30.13,30.05,12,5,26,0.00
2013-8-3,67.8,58.6,53.9,58.8,55.3,53.3,98,89,72,30.08,29.98,14,5,29,0.00
2013-8-4,63.4,56.1,52.7,57.5,54.3,51.9,98,94,79,30.01,29.96,15,5,27,0.00
2013-8-5,63.0,55.3,51.5,56.7,53.0,50.3,98,92,79,30.02,29.94,12,5,21,0.00
2013-8-6,61.9,54.2,49.8,55.0,51.4,48.9,97,91,76,29.99,29.96,10,3,19,0.00
2013-8-15,74.5,65.6,60.6,66.1,62.0,59.1,95,88,74,29.98,29.94,10,2,15,0.00
2013-8-16,74.4,64.3,58.4,62.7,59.0,56.1,95,84,62,30.06,29.95,9,2,15,0.00
2013-8-17,70.0,62.0,54.7,62.0,58.3,53.3,97,88,76,30.09,30.04,10,3,20,0.00
2013-8-18,73.5,63.2,55.3,61.9,58.3,54.4,98,85,66,30.10,30.02,15,5,31,0.00
2013-8-19,72.3,62.6,56.5,61.9,58.1,54.4,98,86,59,30.09,30.02,13,5,30,0.00
2013-8-20,69.4,61.3,54.5,57.9,54.2,51.4,95,79,58,30.06,29.92,14,6,35,0.00
2013-8-21,71.5,58.8,48.2,58.8,52.6,46.8,97,82,51,29.95,29.85,12,4,21,0.00
2013-8-22,64.0,57.9,54.8,58.1,55.5,52.9,96,92,80,29.94,29.90,10,2,15,0.00
2013-8-23,70.8,61.2,56.3,59.2,57.1,54.3,97,87,66,29.95,29.90,7,1,12,0.00
2013-8-24,67.9,60.2,55.0,59.2,56.4,53.6,96,88,70,29.91,29.86,10,3,22,0.00
2013-8-25,62.9,56.6,52.2,59.6,55.3,50.9,98,96,86,29.94,29.88,6,1,9,0.16
2013-8-26,73.0,56.6,51.0,59.5,53.9,50.4,99,92,51,29.93,29.91,7,2,16,0.00
2013-8-27,70.1,65.4,62.6,61.7,60.8,59.9,93,85,72,29.85,29.82,7,2,19,0.00
2013-8-28,74.3,65.6,58.8,63.5,60.9,57.7,97,85,68,29.89,29.81,7,2,17,0.00
2013-8-29,75.2,66.1,61.6,67.1,62.9,60.1,97,90,70,30.08,29.81,12,4,27,0.19
2013-8-30,72.8,65.3,57.5,65.6,62.0,56.4,98,89,73,30.11,30.02,11,3,18,0.01
2013-8-31,71.5,60.4,55.6,62.0,57.6,54.4,98,91,70,30.02,29.90,7,2,14,0.00
2013-9-1,78.8,65.2,54.2,63.4,58.0,53.6,98,80,49,29.93,29.80,12,4,24,0.00
2013-9-2,74.8,66.6,58.2,62.6,59.9,54.8,94,80,59,29.93,29.85,11,4,24,0.01
2013-9-3,73.8,63.7,55.0,60.8,57.6,53.6,96,82,59,30.00,29.92,10,2,18,0.00
2013-9-4,74.2,62.7,57.5,61.5,58.7,56.4,96,87,62,30.05,29.98,10,2,15,0.00
2013-9-5,61.1,59.5,58.7,60.0,58.5,57.9,98,97,95,30.07,29.99,5,1,9,0.28
2013-9-10,70.8,63.7,53.4,62.4,58.1,52.8,99,83,70,29.84,29.70,11,4,24,0.00
2013-9-11,70.0,60.6,55.7,61.7,57.7,54.6,97,91,74,29.98,29.84,7,2,12,0.00
2013-9-12,65.2,61.3,59.3,59.8,58.5,57.6,96,91,82,29.98,29.95,6,2,10,0.00
2013-9-13,64.8,60.9,58.0,59.8,58.1,56.3,97,91,83,29.98,29.84,9,3,19,0.02
2013-9-14,63.7,59.8,57.5,60.6,58.3,56.7,97,95,89,29.85,29.77,5,2,10,0.01
2013-9-15,63.4,59.9,57.2,59.5,57.3,56.3,98,91,80,29.91,29.76,9,2,20,0.01
2013-9-16,71.7,62.1,57.8,60.1,57.5,55.8,95,85,66,29.97,29.86,9,2,16,0.00
2013-9-17,65.5,60.3,55.8,58.4,57.0,54.6,97,89,72,30.04,29.85,9,4,18,0.14
2013-9-18,69.7,59.5,52.8,58.8,55.0,51.5,98,86,61,30.08,29.95,11,3,24,0.01
2013-9-19,73.5,58.4,48.6,57.6,52.3,47.5,97,82,57,29.95,29.79,10,2,15,0.01
2013-9-20,61.7,56.8,51.0,60.2,55.0,49.6,97,94,79,29.79,29.66,11,1,29,0.28
2013-9-21,64.8,58.3,54.5,57.4,55.3,53.8,98,90,74,29.84,29.66,7,3,15,0.77
2013-9-22,63.1,57.9,54.2,58.0,55.2,52.5,97,91,72,29.91,29.75,16,5,33,0.30
2013-9-23,67.0,59.2,54.9,57.6,55.8,53.8,98,89,66,30.00,29.91,8,2,16,0.01
2013-9-24,63.9,56.8,49.3,56.6,53.1,47.5,96,88,68,29.98,29.90,8,3,18,0.40
2013-9-25,58.9,51.9,46.9,51.4,48.2,45.7,98,88,67,30.06,29.90,8,2,16,0.36
2013-9-26,62.7,52.6,41.9,53.4,48.4,41.1,98,87,69,30.18,30.05,10,2,19,0.01
2013-9-27,61.7,52.5,44.7,58.0,50.6,43.8,98,94,70,30.19,29.99,8,3,15,0.30
2013-9-28,63.2,59.2,53.3,59.4,57.4,52.2,98,94,83,30.00,29.64,19,9,42,1.86
2013-9-29,61.6,57.4,53.9,60.3,55.8,52.4,97,95,84,29.77,29.57,18,8,46,3.07
2013-9-30,63.1,56.2,52.1,56.1,51.9,49.8,95,86,67,30.03,29.75,9,4,22,0.05
2013-10-1,63.2,53.9,45.7,54.2,49.4,44.2,96,85,58,30.19,30.02,6,2,13,0.10
2013-10-2,59.3,48.3,39.6,53.1,45.9,38.8,98,92,67,30.20,30.11,6,2,13,0.26
2013-10-3,62.2,50.8,42.7,52.2,46.5,42.2,98,86,54,30.36,30.20,7,2,14,0.01
2013-10-4,72.0,55.3,44.9,53.3,47.0,42.4,94,76,37,30.36,30.25,8,2,16,0.00
2013-10-5,78.8,60.1,47.9,53.3,46.2,38.3,92,64,32,30.25,30.09,8,2,16,0.00
2013-10-6,74.0,57.5,46.5,55.0,48.1,35.4,95,75,26,30.09,30.00,10,3,24,0.00
2013-10-7,62.4,55.9,49.1,55.9,51.4,47.5,98,86,63,30.18,30.02,8,2,16,0.15
2013-10-8,55.9,51.1,46.5,53.3,49.5,45.4,98,94,84,30.18,30.00,6,1,16,0.14
2013-10-9,61.2,51.2,42.0,50.1,46.5,41.5,98,85,57,30.02,29.95,9,2,19,0.01
2013-10-10,64.7,52.2,44.5,53.1,47.6,42.9,97,85,48,30.09,29.95,9,2,19,0.00
2013-10-11,60.4,53.8,48.2,49.3,47.1,43.6,95,79,58,30.12,30.08,10,2,19,0.00
2013-10-12,60.2,50.9,45.8,51.4,48.0,44.4,96,90,70,30.12,30.05,8,1,17,0.02
2013-10-13,59.1,50.2,39.7,51.7,46.6,38.8,98,88,68,30.23,30.12,11,2,23,0.01
2013-10-14,66.6,54.0,44.1,52.3,47.6,43.0,97,81,49,30.27,30.18,8,2,16,0.01
2013-10-15,69.7,56.0,46.4,48.3,45.8,41.3,95,72,37,30.20,30.05,9,2,20,0.00
2013-10-16,65.3,53.4,44.2,53.1,47.8,41.8,97,83,54,30.13,30.03,9,2,20,0.00
2013-10-17,61.9,52.4,46.7,54.1,49.8,46.1,98,91,73,30.15,30.07,11,2,20,0.01
2013-10-18,71.6,54.6,43.7,56.6,48.9,42.8,98,83,55,30.08,30.00,7,1,12,0.01
2013-10-19,61.7,51.9,42.9,53.5,48.7,42.1,98,90,71,30.12,30.04,8,2,13,0.01
2013-10-20,57.6,50.3,46.8,53.0,49.1,46.3,98,95,83,30.11,30.01,9,2,16,0.01
2013-10-21,55.3,48.9,44.2,54.2,48.1,43.7,99,97,88,30.02,29.95,6,1,11,0.00
2013-10-22,52.2,49.7,48.3,51.5,49.1,47.8,99,98,96,30.02,29.99,3,1,6,0.02
2013-10-23,52.6,49.2,47.1,50.6,48.6,46.8,99,98,92,30.01,29.96,5,1,9,0.01
2013-10-24,52.7,50.4,48.0,51.4,49.6,47.6,99,97,95,30.10,29.98,4,1,8,0.01
2013-10-25,54.9,51.6,49.9,52.0,50.5,49.4,98,96,90,30.20,30.10,4,1,8,0.01
2013-10-26,57.3,50.4,44.6,52.1,48.4,44.1,99,93,82,30.19,30.15,11,3,20,0.01
2013-10-27,54.7,51.1,46.8,52.5,48.7,45.8,97,92,84,30.15,29.82,10,3,23,0.07
2013-10-28,59.4,49.4,42.6,50.8,45.0,40.3,99,86,63,29.84,29.73,7,2,19,0.01
2013-10-29,58.8,46.1,37.3,45.8,40.1,34.9,95,81,56,30.06,29.84,7,1,12,0.00
2013-10-30,60.0,45.9,35.5,46.3,41.0,34.4,97,84,54,30.19,30.05,5,1,9,0.01
2013-10-31,61.1,53.2,46.7,55.8,49.8,44.1,97,89,71,30.22,30.17,5,1,9,0.00
2013-11-1,67.2,54.2,46.2,57.4,51.3,45.7,99,90,69,30.21,29.94,9,1,12,0.01
2013-11-2,56.9,51.5,45.1,51.5,47.5,43.1,96,87,64,30.17,29.86,13,4,24,0.42
2013-11-3,54.0,46.4,40.7,48.1,44.0,39.6,98,92,75,30.23,30.16,5,2,10,0.10
2013-11-4,50.6,46.4,39.9,49.5,45.2,39.1,98,96,88,30.19,30.14,5,2,10,0.10
2013-11-5,57.4,53.4,50.3,55.4,52.4,49.3,98,97,91,30.25,30.12,8,3,17,0.28
2013-11-6,59.6,55.6,54.0,58.3,54.7,53.3,99,97,91,30.26,30.11,7,1,11,0.01
2013-11-7,55.7,52.1,47.1,54.6,51.0,45.9,98,96,91,30.18,30.00,12,3,23,0.69
2013-11-8,57.6,48.6,43.8,51.0,46.3,42.1,99,92,72,30.20,30.05,9,2,15,0.01
2013-11-9,58.9,48.9,42.0,48.9,45.5,40.8,97,89,63,30.06,29.97,4,1,7,0.00
2013-11-10,63.0,51.3,44.8,52.7,47.9,43.2,97,89,65,30.05,29.97,6,2,9,0.00
2013-11-11,64.0,53.4,45.1,55.6,50.4,44.6,98,90,69,30.05,29.95,4,1,7,0.01
2013-11-12,62.1,55.0,51.5,57.7,53.4,50.7,98,95,84,30.40,30.02,6,1,12,0.12
2013-11-13,59.1,51.0,45.2,53.5,48.9,44.4,99,93,78,30.42,30.25,8,2,16,0.01
2013-11-14,53.7,46.7,39.7,48.0,44.8,38.9,98,93,79,30.26,30.09,5,1,9,0.07
2013-11-15,51.4,46.9,43.4,47.6,45.1,42.9,98,93,84,30.10,29.76,7,2,17,0.09
2013-11-16,54.8,49.8,46.0,50.3,47.2,44.8,98,91,74,29.93,29.71,8,4,19,0.15
2013-11-17,56.6,49.5,46.5,50.1,46.4,44.5,97,89,73,30.05,29.93,8,3,15,0.06
2013-11-18,54.7,50.5,46.3,53.2,48.1,44.3,97,92,81,30.00,29.77,11,4,26,0.89
2013-11-19,56.5,51.6,43.6,54.9,49.0,33.3,97,91,64,29.96,29.77,12,6,25,0.57
2013-11-20,48.9,42.3,33.9,37.7,34.7,30.6,88,75,61,30.25,29.96,6,3,13,0.00
2013-11-21,51.0,40.9,30.9,31.3,24.8,20.3,90,56,30,30.42,30.25,6,2,14,0.00
2013-11-22,56.2,45.9,38.1,30.6,27.6,24.5,61,49,36,30.41,30.20,11,6,19,0.00
2013-11-23,65.0,52.7,45.4,33.5,30.1,26.2,54,42,29,30.20,30.00,11,5,22,0.00
2013-11-24,63.9,48.5,40.2,40.2,36.0,32.0,89,64,36,30.22,30.03,6,1,10,0.00
2013-11-25,60.6,44.5,34.1,47.0,39.3,31.6,97,83,44,30.29,30.22,4,1,8,0.00
2013-11-26,60.1,47.2,35.9,48.6,42.2,34.1,96,84,60,30.23,29.99,4,1,7,0.01
2013-11-27,63.1,50.0,39.0,45.6,42.0,36.3,93,75,46,29.99,29.85,4,1,8,0.00
2013-11-28,63.9,49.3,40.8,47.8,42.6,39.1,95,79,54,30.15,29.92,6,1,12,0.00
2013-11-29,54.8,44.9,34.3,47.4,41.9,33.3,98,90,69,30.32,30.15,7,2,16,0.02
2013-11-30,54.7,46.3,39.3,49.1,44.5,38.5,98,93,78,30.38,30.30,6,1,10,0.01
2013-12-1,54.2,52.3,49.4,53.6,51.5,47.3,98,97,91,30.35,30.14,10,5,23,0.21
2013-12-2,53.0,46.0,34.7,52.2,43.7,33.7,97,92,74,30.15,30.01,11,5,23,1.01
2013-12-3,46.2,37.3,33.4,42.7,35.7,29.8,98,94,80,30.18,30.07,7,2,13,0.05
2013-12-4,40.9,33.1,28.1,29.9,25.3,19.4,92,75,43,30.27,30.18,6,1,13,0.01
2013-12-5,42.7,32.5,26.4,29.1,25.1,22.0,87,75,48,30.24,30.08,5,1,10,0.00
2013-12-6,44.5,36.4,32.3,42.1,34.1,28.0,96,91,84,30.08,29.80,9,3,20,0.27
2013-12-7,33.4,28.9,23.6,28.1,21.7,17.7,89,75,54,30.34,29.99,6,3,14,0.00
2013-12-8,38.8,29.7,23.4,22.5,19.1,15.0,85,66,38,30.54,30.33,7,3,14,0.00
2013-12-9,44.0,33.0,25.6,27.5,22.8,16.7,82,67,48,30.54,30.46,8,2,14,0.00
2013-12-10,47.4,37.2,29.7,35.2,29.6,25.8,87,74,59,30.48,30.30,5,1,9,0.00
2013-12-11,59.5,41.6,34.1,40.6,33.9,29.3,93,76,46,30.30,30.16,4,2,8,0.00
2013-12-12,46.2,38.6,29.8,43.9,36.7,28.3,98,93,79,30.23,30.11,6,1,11,0.29
2013-12-13,53.9,46.2,41.9,51.4,44.7,40.6,98,95,84,30.38,30.22,5,1,10,0.02
2013-12-14,49.6,41.3,36.1,45.9,40.2,35.3,98,96,87,30.44,30.36,5,1,10,0.01
2013-12-15,59.4,43.1,35.0,48.8,40.9,34.5,99,92,68,30.45,30.38,6,2,15,0.01
2013-12-16,56.8,46.1,36.3,45.6,40.1,35.3,98,81,60,30.39,30.13,8,2,14,0.01
2013-12-17,50.8,42.5,34.8,43.8,39.0,33.0,97,88,70,30.20,30.13,7,2,17,0.00
2013-12-18,47.0,42.8,39.3,45.7,40.7,34.3,98,93,74,30.16,30.04,9,2,24,0.00
2013-12-19,44.9,38.0,31.4,35.4,32.7,29.9,96,82,62,30.27,30.12,7,1,13,0.00
2013-12-20,49.9,41.3,32.9,49.3,37.8,29.9,98,88,64,30.21,30.01,8,3,17,0.47
2013-12-21,50.4,48.3,45.2,49.3,47.4,44.4,98,97,92,30.27,30.06,6,2,11,0.09
2013-12-22,56.2,47.5,44.4,51.1,46.1,43.9,99,95,81,30.36,30.26,8,1,11,0.01
2013-12-23,50.7,47.0,42.7,50.2,46.5,42.2,99,98,98,30.49,30.35,3,1,9,0.06
2013-12-24,52.2,43.9,38.7,46.8,41.7,36.8,99,92,77,30.51,30.35,3,1,10,0.01
2013-12-25,54.6,42.6,31.5,46.3,39.0,30.3,98,88,72,30.38,30.27,4,1,8,0.02
2013-12-26,60.4,45.6,38.2,48.4,40.5,35.8,96,83,54,30.29,30.15,4,1,7,0.00
2013-12-27,52.2,43.1,36.2,47.4,41.4,35.2,98,94,82,30.33,30.14,7,1,17,0.01
2013-12-28,52.7,42.9,35.1,44.4,39.4,34.3,98,88,68,30.42,30.33,8,2,17,0.01
2013-12-29,54.4,43.6,34.7,39.0,35.2,32.3,94,74,44,30.37,30.16,7,1,13,0.00
2013-12-30,52.8,43.9,39.3,43.3,38.4,34.3,95,81,65,30.23,30.14,4,1,8,0.00
2013-12-31,54.7,42.7,36.2,47.2,40.3,35.3,97,91,73,30.30,30.22,6,1,11,0.00
2014-1-1,55.9,46.9,35.5,46.5,41.0,34.7,98,81,67,30.28,30.17,5,1,9,0.01
2014-1-2,56.8,47.1,40.1,48.1,42.9,38.2,96,86,68,30.19,30.10,5,1,10,0.00